sensor_id;sensor_type;location;lat;lon;timestamp;temperature;humidity
22714;DHT22;11524;50.846;4.326;2023-04-21T00:00:32;19.00;57.90
22714;DHT22;11524;50.846;4.326;2023-04-21T00:02:58;18.90;57.60
22714;DHT22;11524;50.846;4.326;2023-04-21T00:05:24;18.90;57.40
22714;DHT22;11524;50.846;4.326;2023-04-21T00:07:50;19.00;58.70
22714;DHT22;11524;50.846;4.326;2023-04-21T00:10:15;18.90;58.10
22714;DHT22;11524;50.846;4.326;2023-04-21T00:12:41;18.90;58.20
22714;DHT22;11524;50.846;4.326;2023-04-21T00:15:07;18.90;59.20
22714;DHT22;11524;50.846;4.326;2023-04-21T00:17:32;18.90;58.70
22714;DHT22;11524;50.846;4.326;2023-04-21T00:19:58;18.90;61.00
22714;DHT22;11524;50.846;4.326;2023-04-21T00:22:24;19.00;59.20
22714;DHT22;11524;50.846;4.326;2023-04-21T00:24:49;18.90;58.70
22714;DHT22;11524;50.846;4.326;2023-04-21T00:27:15;18.90;58.40
22714;DHT22;11524;50.846;4.326;2023-04-21T00:29:41;18.90;58.80
22714;DHT22;11524;50.846;4.326;2023-04-21T00:32:07;18.90;58.40
22714;DHT22;11524;50.846;4.326;2023-04-21T00:34:34;18.90;58.60
22714;DHT22;11524;50.846;4.326;2023-04-21T00:37:00;19.00;58.20
22714;DHT22;11524;50.846;4.326;2023-04-21T00:39:25;18.90;57.70
22714;DHT22;11524;50.846;4.326;2023-04-21T00:41:51;18.90;58.70
22714;DHT22;11524;50.846;4.326;2023-04-21T00:44:17;18.90;58.40
22714;DHT22;11524;50.846;4.326;2023-04-21T00:46:42;18.90;59.10
22714;DHT22;11524;50.846;4.326;2023-04-21T00:49:08;18.90;58.10
22714;DHT22;11524;50.846;4.326;2023-04-21T00:51:35;18.90;59.80
22714;DHT22;11524;50.846;4.326;2023-04-21T00:54:03;18.90;58.30
22714;DHT22;11524;50.846;4.326;2023-04-21T00:56:31;18.90;57.90
22714;DHT22;11524;50.846;4.326;2023-04-21T00:58:58;18.90;58.40
22714;DHT22;11524;50.846;4.326;2023-04-21T01:01:25;18.90;53.80
22714;DHT22;11524;50.846;4.326;2023-04-21T01:03:52;18.90;53.50
22714;DHT22;11524;50.846;4.326;2023-04-21T01:06:18;18.80;53.80
22714;DHT22;11524;50.846;4.326;2023-04-21T01:08:47;18.80;53.60
22714;DHT22;11524;50.846;4.326;2023-04-21T01:11:13;18.80;53.30
22714;DHT22;11524;50.846;4.326;2023-04-21T01:13:39;18.80;53.50
22714;DHT22;11524;50.846;4.326;2023-04-21T01:16:06;18.70;53.50
22714;DHT22;11524;50.846;4.326;2023-04-21T01:18:35;18.70;54.10
22714;DHT22;11524;50.846;4.326;2023-04-21T01:21:05;18.70;53.40
22714;DHT22;11524;50.846;4.326;2023-04-21T01:23:31;18.70;53.60
22714;DHT22;11524;50.846;4.326;2023-04-21T01:25:57;18.70;53.50
22714;DHT22;11524;50.846;4.326;2023-04-21T01:28:24;18.60;53.10
22714;DHT22;11524;50.846;4.326;2023-04-21T01:30:50;18.60;53.50
22714;DHT22;11524;50.846;4.326;2023-04-21T01:33:17;18.60;53.50
22714;DHT22;11524;50.846;4.326;2023-04-21T01:35:43;18.60;54.00
22714;DHT22;11524;50.846;4.326;2023-04-21T01:38:09;18.60;54.00
22714;DHT22;11524;50.846;4.326;2023-04-21T01:40:35;18.60;53.80
22714;DHT22;11524;50.846;4.326;2023-04-21T01:43:01;18.60;53.70
22714;DHT22;11524;50.846;4.326;2023-04-21T01:45:28;18.60;53.40
22714;DHT22;11524;50.846;4.326;2023-04-21T01:47:54;18.60;53.70
22714;DHT22;11524;50.846;4.326;2023-04-21T01:50:20;18.60;53.60
22714;DHT22;11524;50.846;4.326;2023-04-21T01:52:45;18.60;54.00
22714;DHT22;11524;50.846;4.326;2023-04-21T01:55:11;18.50;54.20
22714;DHT22;11524;50.846;4.326;2023-04-21T01:57:37;18.60;54.00
22714;DHT22;11524;50.846;4.326;2023-04-21T02:00:03;18.50;54.10
22714;DHT22;11524;50.846;4.326;2023-04-21T02:02:29;18.50;54.10
22714;DHT22;11524;50.846;4.326;2023-04-21T02:04:55;18.50;54.10
22714;DHT22;11524;50.846;4.326;2023-04-21T02:07:21;18.50;54.30
22714;DHT22;11524;50.846;4.326;2023-04-21T02:09:46;18.50;54.00
22714;DHT22;11524;50.846;4.326;2023-04-21T02:12:12;18.50;54.40
22714;DHT22;11524;50.846;4.326;2023-04-21T02:14:38;18.50;54.10
22714;DHT22;11524;50.846;4.326;2023-04-21T02:17:03;18.50;54.10
22714;DHT22;11524;50.846;4.326;2023-04-21T02:19:29;18.50;53.80
22714;DHT22;11524;50.846;4.326;2023-04-21T02:21:55;18.50;54.10
22714;DHT22;11524;50.846;4.326;2023-04-21T02:24:21;18.50;54.10
22714;DHT22;11524;50.846;4.326;2023-04-21T02:26:47;18.50;54.10
22714;DHT22;11524;50.846;4.326;2023-04-21T02:29:13;18.40;54.10
22714;DHT22;11524;50.846;4.326;2023-04-21T02:31:39;18.40;54.30
22714;DHT22;11524;50.846;4.326;2023-04-21T02:34:06;18.40;54.40
22714;DHT22;11524;50.846;4.326;2023-04-21T02:36:32;18.40;54.10
22714;DHT22;11524;50.846;4.326;2023-04-21T02:38:58;18.40;54.20
22714;DHT22;11524;50.846;4.326;2023-04-21T02:41:23;18.40;54.40
22714;DHT22;11524;50.846;4.326;2023-04-21T02:43:49;18.40;53.80
22714;DHT22;11524;50.846;4.326;2023-04-21T02:46:15;18.40;54.20
22714;DHT22;11524;50.846;4.326;2023-04-21T02:48:40;18.40;54.10
22714;DHT22;11524;50.846;4.326;2023-04-21T02:51:13;18.40;54.30
22714;DHT22;11524;50.846;4.326;2023-04-21T02:53:39;18.40;54.00
22714;DHT22;11524;50.846;4.326;2023-04-21T02:56:06;18.40;54.20
22714;DHT22;11524;50.846;4.326;2023-04-21T02:58:33;18.30;54.30
22714;DHT22;11524;50.846;4.326;2023-04-21T03:00:59;18.30;54.30
22714;DHT22;11524;50.846;4.326;2023-04-21T03:03:26;18.30;54.20
22714;DHT22;11524;50.846;4.326;2023-04-21T03:05:58;18.30;54.60
22714;DHT22;11524;50.846;4.326;2023-04-21T03:08:24;18.30;54.10
22714;DHT22;11524;50.846;4.326;2023-04-21T03:10:50;18.30;54.40
22714;DHT22;11524;50.846;4.326;2023-04-21T03:13:15;18.30;54.60
22714;DHT22;11524;50.846;4.326;2023-04-21T03:15:41;18.30;54.60
22714;DHT22;11524;50.846;4.326;2023-04-21T03:18:07;18.30;54.60
22714;DHT22;11524;50.846;4.326;2023-04-21T03:20:33;18.30;54.60
22714;DHT22;11524;50.846;4.326;2023-04-21T03:22:58;18.30;54.40
22714;DHT22;11524;50.846;4.326;2023-04-21T03:25:24;18.30;54.60
22714;DHT22;11524;50.846;4.326;2023-04-21T03:27:52;18.30;54.60
22714;DHT22;11524;50.846;4.326;2023-04-21T03:30:18;18.30;54.60
22714;DHT22;11524;50.846;4.326;2023-04-21T03:32:44;18.30;54.50
22714;DHT22;11524;50.846;4.326;2023-04-21T03:35:10;18.20;54.90
22714;DHT22;11524;50.846;4.326;2023-04-21T03:37:36;18.20;54.70
22714;DHT22;11524;50.846;4.326;2023-04-21T03:40:02;18.20;54.70
22714;DHT22;11524;50.846;4.326;2023-04-21T03:42:30;18.20;54.50
22714;DHT22;11524;50.846;4.326;2023-04-21T03:45:00;18.20;55.00
22714;DHT22;11524;50.846;4.326;2023-04-21T03:47:26;18.20;55.30
22714;DHT22;11524;50.846;4.326;2023-04-21T03:49:52;18.20;55.60
22714;DHT22;11524;50.846;4.326;2023-04-21T03:52:17;18.20;55.10
22714;DHT22;11524;50.846;4.326;2023-04-21T03:54:43;18.20;55.60
22714;DHT22;11524;50.846;4.326;2023-04-21T03:57:08;18.20;55.10
22714;DHT22;11524;50.846;4.326;2023-04-21T03:59:34;18.20;55.20
22714;DHT22;11524;50.846;4.326;2023-04-21T04:01:59;18.20;55.10
22714;DHT22;11524;50.846;4.326;2023-04-21T04:04:25;18.20;54.90
22714;DHT22;11524;50.846;4.326;2023-04-21T04:06:51;18.20;55.10
22714;DHT22;11524;50.846;4.326;2023-04-21T04:09:16;18.20;54.70
22714;DHT22;11524;50.846;4.326;2023-04-21T04:11:42;18.20;54.90
22714;DHT22;11524;50.846;4.326;2023-04-21T04:14:07;18.20;54.80
22714;DHT22;11524;50.846;4.326;2023-04-21T04:16:34;18.20;54.70
22714;DHT22;11524;50.846;4.326;2023-04-21T04:19:00;18.20;54.60
22714;DHT22;11524;50.846;4.326;2023-04-21T04:21:25;18.20;54.90
22714;DHT22;11524;50.846;4.326;2023-04-21T04:23:52;18.20;55.30
22714;DHT22;11524;50.846;4.326;2023-04-21T04:26:18;18.20;55.00
22714;DHT22;11524;50.846;4.326;2023-04-21T04:28:44;18.20;54.90
22714;DHT22;11524;50.846;4.326;2023-04-21T04:31:10;18.20;54.60
22714;DHT22;11524;50.846;4.326;2023-04-21T04:33:40;18.10;54.90
22714;DHT22;11524;50.846;4.326;2023-04-21T04:36:07;18.20;54.80
22714;DHT22;11524;50.846;4.326;2023-04-21T04:38:33;18.10;55.00
22714;DHT22;11524;50.846;4.326;2023-04-21T04:40:59;18.20;55.30
22714;DHT22;11524;50.846;4.326;2023-04-21T04:43:26;18.20;54.90
22714;DHT22;11524;50.846;4.326;2023-04-21T04:45:52;18.20;54.50
22714;DHT22;11524;50.846;4.326;2023-04-21T04:48:18;18.20;55.20
22714;DHT22;11524;50.846;4.326;2023-04-21T04:50:44;18.20;55.70
22714;DHT22;11524;50.846;4.326;2023-04-21T04:53:10;18.10;55.40
22714;DHT22;11524;50.846;4.326;2023-04-21T04:55:35;18.10;55.50
22714;DHT22;11524;50.846;4.326;2023-04-21T04:58:01;18.10;55.50
22714;DHT22;11524;50.846;4.326;2023-04-21T05:00:27;18.20;55.50
22714;DHT22;11524;50.846;4.326;2023-04-21T05:02:53;18.20;55.40
22714;DHT22;11524;50.846;4.326;2023-04-21T05:05:20;18.10;55.00
22714;DHT22;11524;50.846;4.326;2023-04-21T05:07:46;18.20;54.50
22714;DHT22;11524;50.846;4.326;2023-04-21T05:10:12;18.20;55.00
22714;DHT22;11524;50.846;4.326;2023-04-21T05:12:38;18.20;54.90
22714;DHT22;11524;50.846;4.326;2023-04-21T05:15:05;18.20;54.70
22714;DHT22;11524;50.846;4.326;2023-04-21T05:17:32;18.20;55.20
22714;DHT22;11524;50.846;4.326;2023-04-21T05:19:58;18.20;55.60
22714;DHT22;11524;50.846;4.326;2023-04-21T05:22:24;18.20;55.10
22714;DHT22;11524;50.846;4.326;2023-04-21T05:24:51;18.30;54.90
22714;DHT22;11524;50.846;4.326;2023-04-21T05:27:16;18.30;54.70
22714;DHT22;11524;50.846;4.326;2023-04-21T05:29:42;18.30;54.60
22714;DHT22;11524;50.846;4.326;2023-04-21T05:32:08;18.30;54.30
22714;DHT22;11524;50.846;4.326;2023-04-21T05:34:34;18.30;53.70
22714;DHT22;11524;50.846;4.326;2023-04-21T05:36:59;18.40;53.40
22714;DHT22;11524;50.846;4.326;2023-04-21T05:39:28;18.40;53.30
22714;DHT22;11524;50.846;4.326;2023-04-21T05:41:53;18.40;58.00
22714;DHT22;11524;50.846;4.326;2023-04-21T05:44:19;18.50;59.70
22714;DHT22;11524;50.846;4.326;2023-04-21T05:46:44;18.60;54.60
22714;DHT22;11524;50.846;4.326;2023-04-21T05:49:10;18.60;53.10
22714;DHT22;11524;50.846;4.326;2023-04-21T05:51:36;18.60;53.30
22714;DHT22;11524;50.846;4.326;2023-04-21T05:54:01;18.60;53.20
22714;DHT22;11524;50.846;4.326;2023-04-21T05:56:27;18.50;53.00
22714;DHT22;11524;50.846;4.326;2023-04-21T05:58:53;18.70;58.10
22714;DHT22;11524;50.846;4.326;2023-04-21T06:01:18;18.80;58.80
22714;DHT22;11524;50.846;4.326;2023-04-21T06:03:44;18.90;58.50
22714;DHT22;11524;50.846;4.326;2023-04-21T06:06:10;19.00;52.40
22714;DHT22;11524;50.846;4.326;2023-04-21T06:08:36;18.60;52.50
22714;DHT22;11524;50.846;4.326;2023-04-21T06:11:01;17.50;53.70
22714;DHT22;11524;50.846;4.326;2023-04-21T06:13:27;16.70;56.00
22714;DHT22;11524;50.846;4.326;2023-04-21T06:15:53;16.20;55.80
22714;DHT22;11524;50.846;4.326;2023-04-21T06:18:19;15.90;57.40
22714;DHT22;11524;50.846;4.326;2023-04-21T06:23:19;15.50;57.30
22714;DHT22;11524;50.846;4.326;2023-04-21T06:26:03;15.40;57.20
22714;DHT22;11524;50.846;4.326;2023-04-21T06:28:32;15.30;58.00
22714;DHT22;11524;50.846;4.326;2023-04-21T06:31:02;15.20;57.40
22714;DHT22;11524;50.846;4.326;2023-04-21T06:33:29;15.10;57.90
22714;DHT22;11524;50.846;4.326;2023-04-21T06:35:54;15.20;58.10
22714;DHT22;11524;50.846;4.326;2023-04-21T06:38:20;15.20;57.20
22714;DHT22;11524;50.846;4.326;2023-04-21T06:40:46;15.20;57.10
22714;DHT22;11524;50.846;4.326;2023-04-21T06:43:12;15.10;57.50
22714;DHT22;11524;50.846;4.326;2023-04-21T06:45:37;15.10;57.40
22714;DHT22;11524;50.846;4.326;2023-04-21T06:48:03;15.20;57.20
22714;DHT22;11524;50.846;4.326;2023-04-21T06:50:29;15.30;56.70
22714;DHT22;11524;50.846;4.326;2023-04-21T06:52:57;15.40;56.30
22714;DHT22;11524;50.846;4.326;2023-04-21T06:55:23;15.60;56.70
22714;DHT22;11524;50.846;4.326;2023-04-21T06:57:51;15.80;56.40
22714;DHT22;11524;50.846;4.326;2023-04-21T07:00:17;15.70;55.80
22714;DHT22;11524;50.846;4.326;2023-04-21T07:02:54;15.70;57.10
22714;DHT22;11524;50.846;4.326;2023-04-21T07:05:42;15.70;57.20
22714;DHT22;11524;50.846;4.326;2023-04-21T07:08:13;15.80;57.30
22714;DHT22;11524;50.846;4.326;2023-04-21T07:10:39;15.90;56.40
22714;DHT22;11524;50.846;4.326;2023-04-21T07:13:05;16.00;56.80
22714;DHT22;11524;50.846;4.326;2023-04-21T07:15:31;16.00;55.90
22714;DHT22;11524;50.846;4.326;2023-04-21T07:18:02;16.10;55.80
22714;DHT22;11524;50.846;4.326;2023-04-21T07:20:29;16.30;55.90
22714;DHT22;11524;50.846;4.326;2023-04-21T07:25:37;16.60;54.50
22714;DHT22;11524;50.846;4.326;2023-04-21T07:28:03;16.60;54.50
22714;DHT22;11524;50.846;4.326;2023-04-21T07:30:36;16.60;53.40
22714;DHT22;11524;50.846;4.326;2023-04-21T07:33:13;16.50;53.50
22714;DHT22;11524;50.846;4.326;2023-04-21T07:35:46;16.60;53.90
22714;DHT22;11524;50.846;4.326;2023-04-21T07:38:12;16.50;53.90
22714;DHT22;11524;50.846;4.326;2023-04-21T07:40:37;16.40;53.90
22714;DHT22;11524;50.846;4.326;2023-04-21T07:43:03;16.30;53.90
22714;DHT22;11524;50.846;4.326;2023-04-21T07:45:29;16.40;53.50
22714;DHT22;11524;50.846;4.326;2023-04-21T07:47:55;16.30;53.90
22714;DHT22;11524;50.846;4.326;2023-04-21T07:50:21;16.40;54.20
22714;DHT22;11524;50.846;4.326;2023-04-21T07:52:47;16.30;53.90
22714;DHT22;11524;50.846;4.326;2023-04-21T07:55:13;16.40;54.60
22714;DHT22;11524;50.846;4.326;2023-04-21T07:57:39;16.50;53.90
22714;DHT22;11524;50.846;4.326;2023-04-21T08:00:05;16.70;52.90
22714;DHT22;11524;50.846;4.326;2023-04-21T08:02:31;16.80;51.90
22714;DHT22;11524;50.846;4.326;2023-04-21T08:04:57;16.80;52.40
22714;DHT22;11524;50.846;4.326;2023-04-21T08:07:22;16.80;51.60
22714;DHT22;11524;50.846;4.326;2023-04-21T08:09:48;16.90;52.30
22714;DHT22;11524;50.846;4.326;2023-04-21T08:12:14;16.70;51.90
22714;DHT22;11524;50.846;4.326;2023-04-21T08:14:40;16.70;52.60
22714;DHT22;11524;50.846;4.326;2023-04-21T08:17:05;16.70;52.30
22714;DHT22;11524;50.846;4.326;2023-04-21T08:19:31;16.70;52.40
22714;DHT22;11524;50.846;4.326;2023-04-21T08:21:57;16.80;51.70
22714;DHT22;11524;50.846;4.326;2023-04-21T08:24:23;16.80;51.00
22714;DHT22;11524;50.846;4.326;2023-04-21T08:26:49;16.90;52.90
22714;DHT22;11524;50.846;4.326;2023-04-21T08:29:14;17.10;52.30
22714;DHT22;11524;50.846;4.326;2023-04-21T08:31:40;17.30;52.00
22714;DHT22;11524;50.846;4.326;2023-04-21T08:34:06;17.40;51.20
22714;DHT22;11524;50.846;4.326;2023-04-21T08:36:32;17.50;49.70
22714;DHT22;11524;50.846;4.326;2023-04-21T08:38:58;17.40;49.60
22714;DHT22;11524;50.846;4.326;2023-04-21T08:41:25;17.30;49.30
22714;DHT22;11524;50.846;4.326;2023-04-21T08:43:51;17.30;50.40
22714;DHT22;11524;50.846;4.326;2023-04-21T08:46:16;17.40;49.50
22714;DHT22;11524;50.846;4.326;2023-04-21T08:48:43;17.50;49.30
22714;DHT22;11524;50.846;4.326;2023-04-21T08:51:10;17.50;49.70
22714;DHT22;11524;50.846;4.326;2023-04-21T08:53:36;17.70;51.20
22714;DHT22;11524;50.846;4.326;2023-04-21T08:56:02;17.80;50.70
22714;DHT22;11524;50.846;4.326;2023-04-21T08:58:28;17.90;47.80
22714;DHT22;11524;50.846;4.326;2023-04-21T09:00:54;17.80;49.50
22714;DHT22;11524;50.846;4.326;2023-04-21T09:03:25;17.80;48.30
22714;DHT22;11524;50.846;4.326;2023-04-21T09:06:05;17.80;50.60
22714;DHT22;11524;50.846;4.326;2023-04-21T09:08:31;17.90;49.30
22714;DHT22;11524;50.846;4.326;2023-04-21T09:10:59;17.70;49.00
22714;DHT22;11524;50.846;4.326;2023-04-21T09:13:30;18.00;51.00
22714;DHT22;11524;50.846;4.326;2023-04-21T09:15:56;18.50;50.70
22714;DHT22;11524;50.846;4.326;2023-04-21T09:18:24;18.90;50.20
22714;DHT22;11524;50.846;4.326;2023-04-21T09:20:52;19.20;49.90
22714;DHT22;11524;50.846;4.326;2023-04-21T09:23:28;19.50;48.90
22714;DHT22;11524;50.846;4.326;2023-04-21T09:25:54;19.70;48.70
22714;DHT22;11524;50.846;4.326;2023-04-21T09:28:20;19.90;48.20
22714;DHT22;11524;50.846;4.326;2023-04-21T09:30:46;20.00;48.20
22714;DHT22;11524;50.846;4.326;2023-04-21T09:33:16;20.20;48.50
22714;DHT22;11524;50.846;4.326;2023-04-21T09:35:44;20.30;48.70
22714;DHT22;11524;50.846;4.326;2023-04-21T09:38:11;20.40;48.50
22714;DHT22;11524;50.846;4.326;2023-04-21T09:40:37;20.50;48.30
22714;DHT22;11524;50.846;4.326;2023-04-21T09:43:05;20.60;48.10
22714;DHT22;11524;50.846;4.326;2023-04-21T09:45:31;20.70;47.90
22714;DHT22;11524;50.846;4.326;2023-04-21T09:48:00;20.80;47.70
22714;DHT22;11524;50.846;4.326;2023-04-21T09:50:27;20.90;47.70
22714;DHT22;11524;50.846;4.326;2023-04-21T09:52:54;21.00;47.50
22714;DHT22;11524;50.846;4.326;2023-04-21T09:55:29;21.00;47.50
22714;DHT22;11524;50.846;4.326;2023-04-21T09:57:57;21.10;48.10
22714;DHT22;11524;50.846;4.326;2023-04-21T10:00:26;21.10;47.50
22714;DHT22;11524;50.846;4.326;2023-04-21T10:02:57;21.20;47.70
22714;DHT22;11524;50.846;4.326;2023-04-21T10:05:23;21.20;47.70
22714;DHT22;11524;50.846;4.326;2023-04-21T10:07:50;21.30;47.70
22714;DHT22;11524;50.846;4.326;2023-04-21T10:10:26;21.30;47.50
22714;DHT22;11524;50.846;4.326;2023-04-21T10:12:53;21.30;47.20
22714;DHT22;11524;50.846;4.326;2023-04-21T10:15:38;21.40;47.00
22714;DHT22;11524;50.846;4.326;2023-04-21T10:18:19;21.40;47.00
22714;DHT22;11524;50.846;4.326;2023-04-21T10:20:54;21.40;46.90
22714;DHT22;11524;50.846;4.326;2023-04-21T10:26:12;21.50;46.50
22714;DHT22;11524;50.846;4.326;2023-04-21T10:28:58;21.50;46.60
22714;DHT22;11524;50.846;4.326;2023-04-21T10:31:35;21.50;46.30
22714;DHT22;11524;50.846;4.326;2023-04-21T10:39:07;21.50;46.70
22714;DHT22;11524;50.846;4.326;2023-04-21T10:41:36;21.60;46.90
22714;DHT22;11524;50.846;4.326;2023-04-21T10:44:12;21.60;46.90
22714;DHT22;11524;50.846;4.326;2023-04-21T10:46:40;21.70;47.00
22714;DHT22;11524;50.846;4.326;2023-04-21T10:49:10;21.60;46.90
22714;DHT22;11524;50.846;4.326;2023-04-21T10:54:25;21.60;46.50
22714;DHT22;11524;50.846;4.326;2023-04-21T10:56:53;21.60;46.20
22714;DHT22;11524;50.846;4.326;2023-04-21T10:59:19;21.60;46.30
22714;DHT22;11524;50.846;4.326;2023-04-21T11:01:45;21.60;46.10
22714;DHT22;11524;50.846;4.326;2023-04-21T11:04:15;21.60;46.00
22714;DHT22;11524;50.846;4.326;2023-04-21T11:06:41;21.60;46.50
22714;DHT22;11524;50.846;4.326;2023-04-21T11:09:06;21.60;45.90
22714;DHT22;11524;50.846;4.326;2023-04-21T11:11:34;21.60;45.60
22714;DHT22;11524;50.846;4.326;2023-04-21T11:14:01;21.60;45.00
22714;DHT22;11524;50.846;4.326;2023-04-21T11:16:27;21.60;45.40
22714;DHT22;11524;50.846;4.326;2023-04-21T11:18:55;21.60;45.50
22714;DHT22;11524;50.846;4.326;2023-04-21T11:21:21;21.60;45.80
22714;DHT22;11524;50.846;4.326;2023-04-21T11:23:54;21.60;45.80
22714;DHT22;11524;50.846;4.326;2023-04-21T11:26:34;21.60;46.10
22714;DHT22;11524;50.846;4.326;2023-04-21T11:29:04;21.60;46.00
22714;DHT22;11524;50.846;4.326;2023-04-21T11:31:31;21.60;45.90
22714;DHT22;11524;50.846;4.326;2023-04-21T11:33:58;21.60;45.70
22714;DHT22;11524;50.846;4.326;2023-04-21T11:36:24;21.60;45.00
22714;DHT22;11524;50.846;4.326;2023-04-21T11:38:52;21.70;45.50
22714;DHT22;11524;50.846;4.326;2023-04-21T11:41:22;21.70;45.60
22714;DHT22;11524;50.846;4.326;2023-04-21T11:43:49;21.70;46.90
22714;DHT22;11524;50.846;4.326;2023-04-21T11:46:26;21.80;47.60
22714;DHT22;11524;50.846;4.326;2023-04-21T11:51:39;21.80;47.80
22714;DHT22;11524;50.846;4.326;2023-04-21T11:54:07;21.90;47.80
22714;DHT22;11524;50.846;4.326;2023-04-21T11:56:38;21.90;47.50
22714;DHT22;11524;50.846;4.326;2023-04-21T11:59:11;21.90;47.80
22714;DHT22;11524;50.846;4.326;2023-04-21T12:01:51;21.90;48.30
22714;DHT22;11524;50.846;4.326;2023-04-21T12:04:18;22.00;49.20
22714;DHT22;11524;50.846;4.326;2023-04-21T12:06:45;22.00;49.40
22714;DHT22;11524;50.846;4.326;2023-04-21T12:09:19;22.00;49.10
22714;DHT22;11524;50.846;4.326;2023-04-21T12:11:53;22.00;49.20
22714;DHT22;11524;50.846;4.326;2023-04-21T12:14:20;22.00;48.70
22714;DHT22;11524;50.846;4.326;2023-04-21T12:16:55;22.00;48.70
22714;DHT22;11524;50.846;4.326;2023-04-21T12:21:55;22.00;47.60
22714;DHT22;11524;50.846;4.326;2023-04-21T12:24:23;22.10;47.90
22714;DHT22;11524;50.846;4.326;2023-04-21T12:26:49;22.10;48.00
22714;DHT22;11524;50.846;4.326;2023-04-21T12:29:14;22.10;48.00
22714;DHT22;11524;50.846;4.326;2023-04-21T12:31:40;22.10;47.90
22714;DHT22;11524;50.846;4.326;2023-04-21T12:34:06;22.10;47.60
22714;DHT22;11524;50.846;4.326;2023-04-21T12:36:31;22.10;46.90
22714;DHT22;11524;50.846;4.326;2023-04-21T12:38:57;22.10;46.80
22714;DHT22;11524;50.846;4.326;2023-04-21T12:41:23;22.10;46.70
22714;DHT22;11524;50.846;4.326;2023-04-21T12:43:48;22.20;46.70
22714;DHT22;11524;50.846;4.326;2023-04-21T12:46:14;22.20;46.80
22714;DHT22;11524;50.846;4.326;2023-04-21T12:48:40;22.20;46.00
22714;DHT22;11524;50.846;4.326;2023-04-21T12:51:06;22.20;45.90
22714;DHT22;11524;50.846;4.326;2023-04-21T12:53:31;22.20;45.70
22714;DHT22;11524;50.846;4.326;2023-04-21T12:55:57;22.20;45.60
22714;DHT22;11524;50.846;4.326;2023-04-21T12:58:23;22.20;45.20
22714;DHT22;11524;50.846;4.326;2023-04-21T13:00:48;22.20;44.70
22714;DHT22;11524;50.846;4.326;2023-04-21T13:03:14;22.20;44.80
22714;DHT22;11524;50.846;4.326;2023-04-21T13:05:39;22.20;44.90
22714;DHT22;11524;50.846;4.326;2023-04-21T13:08:05;22.20;44.40
22714;DHT22;11524;50.846;4.326;2023-04-21T13:10:31;22.20;44.30
22714;DHT22;11524;50.846;4.326;2023-04-21T13:12:56;22.20;44.50
22714;DHT22;11524;50.846;4.326;2023-04-21T13:15:22;22.20;44.60
22714;DHT22;11524;50.846;4.326;2023-04-21T13:17:48;22.30;44.40
22714;DHT22;11524;50.846;4.326;2023-04-21T13:20:13;22.30;44.40
22714;DHT22;11524;50.846;4.326;2023-04-21T13:22:39;22.30;44.40
22714;DHT22;11524;50.846;4.326;2023-04-21T13:25:05;22.30;44.40
22714;DHT22;11524;50.846;4.326;2023-04-21T13:27:31;22.20;44.30
22714;DHT22;11524;50.846;4.326;2023-04-21T13:29:58;22.40;44.40
22714;DHT22;11524;50.846;4.326;2023-04-21T13:32:24;22.40;44.10
22714;DHT22;11524;50.846;4.326;2023-04-21T13:34:50;22.40;44.00
22714;DHT22;11524;50.846;4.326;2023-04-21T13:37:15;22.40;43.90
22714;DHT22;11524;50.846;4.326;2023-04-21T13:39:41;22.50;43.80
22714;DHT22;11524;50.846;4.326;2023-04-21T13:42:07;22.50;43.50
22714;DHT22;11524;50.846;4.326;2023-04-21T13:44:33;22.50;43.40
22714;DHT22;11524;50.846;4.326;2023-04-21T13:46:59;22.50;43.30
22714;DHT22;11524;50.846;4.326;2023-04-21T13:49:25;22.50;43.00
22714;DHT22;11524;50.846;4.326;2023-04-21T13:51:51;22.50;43.10
22714;DHT22;11524;50.846;4.326;2023-04-21T13:54:16;22.50;43.00
22714;DHT22;11524;50.846;4.326;2023-04-21T13:56:42;22.50;43.00
22714;DHT22;11524;50.846;4.326;2023-04-21T13:59:08;22.50;42.70
22714;DHT22;11524;50.846;4.326;2023-04-21T14:01:35;22.50;42.30
22714;DHT22;11524;50.846;4.326;2023-04-21T14:04:01;22.50;42.10
22714;DHT22;11524;50.846;4.326;2023-04-21T14:06:27;22.50;42.10
22714;DHT22;11524;50.846;4.326;2023-04-21T14:08:53;22.50;42.10
22714;DHT22;11524;50.846;4.326;2023-04-21T14:11:19;22.50;42.20
22714;DHT22;11524;50.846;4.326;2023-04-21T14:13:45;22.50;42.00
22714;DHT22;11524;50.846;4.326;2023-04-21T14:16:11;22.50;41.90
22714;DHT22;11524;50.846;4.326;2023-04-21T14:18:37;22.50;42.20
22714;DHT22;11524;50.846;4.326;2023-04-21T14:21:08;22.50;42.40
22714;DHT22;11524;50.846;4.326;2023-04-21T14:23:34;22.50;42.80
22714;DHT22;11524;50.846;4.326;2023-04-21T14:25:59;22.50;42.90
22714;DHT22;11524;50.846;4.326;2023-04-21T14:28:26;22.50;43.40
22714;DHT22;11524;50.846;4.326;2023-04-21T14:30:52;22.50;43.10
22714;DHT22;11524;50.846;4.326;2023-04-21T14:33:17;22.50;42.90
22714;DHT22;11524;50.846;4.326;2023-04-21T14:35:43;22.40;42.90
22714;DHT22;11524;50.846;4.326;2023-04-21T14:38:08;22.40;42.80
22714;DHT22;11524;50.846;4.326;2023-04-21T14:40:34;22.40;43.00
22714;DHT22;11524;50.846;4.326;2023-04-21T14:43:00;22.40;43.30
22714;DHT22;11524;50.846;4.326;2023-04-21T14:45:27;22.40;43.20
22714;DHT22;11524;50.846;4.326;2023-04-21T14:47:52;22.40;43.20
22714;DHT22;11524;50.846;4.326;2023-04-21T14:50:18;22.40;43.00
22714;DHT22;11524;50.846;4.326;2023-04-21T14:52:43;22.40;43.10
22714;DHT22;11524;50.846;4.326;2023-04-21T14:55:09;22.40;43.10
22714;DHT22;11524;50.846;4.326;2023-04-21T14:57:35;22.40;43.00
22714;DHT22;11524;50.846;4.326;2023-04-21T15:00:01;22.40;43.40
22714;DHT22;11524;50.846;4.326;2023-04-21T15:02:27;22.40;43.30
22714;DHT22;11524;50.846;4.326;2023-04-21T15:04:54;22.40;43.50
22714;DHT22;11524;50.846;4.326;2023-04-21T15:07:20;22.40;43.60
22714;DHT22;11524;50.846;4.326;2023-04-21T15:09:46;22.40;43.70
22714;DHT22;11524;50.846;4.326;2023-04-21T15:12:13;22.40;43.40
22714;DHT22;11524;50.846;4.326;2023-04-21T15:14:39;22.40;43.20
22714;DHT22;11524;50.846;4.326;2023-04-21T15:17:06;22.40;43.70
22714;DHT22;11524;50.846;4.326;2023-04-21T15:19:31;22.40;43.00
22714;DHT22;11524;50.846;4.326;2023-04-21T15:21:57;22.40;42.90
22714;DHT22;11524;50.846;4.326;2023-04-21T15:24:23;22.40;42.90
22714;DHT22;11524;50.846;4.326;2023-04-21T15:26:48;22.40;43.20
22714;DHT22;11524;50.846;4.326;2023-04-21T15:29:14;22.50;43.00
22714;DHT22;11524;50.846;4.326;2023-04-21T15:31:40;22.40;43.10
22714;DHT22;11524;50.846;4.326;2023-04-21T15:34:06;22.40;43.20
22714;DHT22;11524;50.846;4.326;2023-04-21T15:36:31;22.40;43.10
22714;DHT22;11524;50.846;4.326;2023-04-21T15:38:57;22.40;43.20
22714;DHT22;11524;50.846;4.326;2023-04-21T15:41:23;22.40;43.30
22714;DHT22;11524;50.846;4.326;2023-04-21T15:43:50;22.40;43.00
22714;DHT22;11524;50.846;4.326;2023-04-21T15:46:16;22.40;43.10
22714;DHT22;11524;50.846;4.326;2023-04-21T15:48:42;22.40;43.10